Time;durP1;ratioP1;P1;durP2;ratioP2;P2;SDS_P1;SDS_P2;PMS_P1;PMS_P2;Temp;Humidity;BMP_temperature;BMP_pressure;BME280_temperature;BME280_humidity;BME280_pressure;Samples;Min_cycle;Max_cycle;Signal;HPM_P1;HPM_P2
2023/06/28 00:00:34;;;;;;;5.38;3.35;;;;;;;;;;5066779;27;98378;-76
2023/06/28 00:03:00;;;;;;;2.70;1.80;;;;;;;;;;5067792;27;99906;-76
2023/06/28 00:05:27;;;;;;;3.47;2.00;;;;;;;;;;5066941;27;98969;-75
2023/06/28 00:07:53;;;;;;;4.32;1.60;;;;;;;;;;5068842;27;98692;-75
2023/06/28 00:10:20;;;;;;;4.57;1.50;;;;;;;;;;5067454;27;99878;-75
2023/06/28 00:12:46;;;;;;;3.40;1.60;;;;;;;;;;5067927;27;98310;-75
2023/06/28 00:15:12;;;;;;;2.35;1.42;;;;;;;;;;5067460;27;99759;-75
2023/06/28 00:17:39;;;;;;;2.50;1.33;;;;;;;;;;5067688;27;99962;-75
2023/06/28 00:20:06;;;;;;;3.83;1.58;;;;;;;;;;5066947;27;98274;-75
2023/06/28 00:22:33;;;;;;;4.43;1.38;;;;;;;;;;5070036;27;98581;-75
2023/06/28 00:25:00;;;;;;;2.10;1.80;;;;;;;;;;5067373;27;98794;-76
2023/06/28 00:27:29;;;;;;;3.30;1.67;;;;;;;;;;5071238;27;98338;-76
2023/06/28 00:29:57;;;;;;;3.10;1.88;;;;;;;;;;5054867;27;100282;-75
2023/06/28 00:32:25;;;;;;;2.03;1.52;;;;;;;;;;5052717;27;98300;-75
2023/06/28 00:34:52;;;;;;;5.47;1.35;;;;;;;;;;5070730;27;98303;-75
2023/06/28 00:37:19;;;;;;;2.67;2.42;;;;;;;;;;5069707;27;98943;-75
2023/06/28 00:39:48;;;;;;;7.35;2.00;;;;;;;;;;5071359;27;98235;-75
2023/06/28 00:42:14;;;;;;;3.85;1.70;;;;;;;;;;5070327;27;99304;-75
2023/06/28 00:44:41;;;;;;;3.83;1.30;;;;;;;;;;5052635;27;100205;-75
2023/06/28 00:47:08;;;;;;;1.80;1.45;;;;;;;;;;5071225;27;98184;-75
2023/06/28 00:49:36;;;;;;;3.42;1.77;;;;;;;;;;5073896;27;99335;-76
2023/06/28 00:52:04;;;;;;;8.38;1.58;;;;;;;;;;5070868;27;98231;-75
2023/06/28 00:54:30;;;;;;;4.63;1.90;;;;;;;;;;5052547;27;101007;-76
2023/06/28 00:56:58;;;;;;;6.72;2.40;;;;;;;;;;5081724;27;99039;-75
2023/06/28 00:59:24;;;;;;;2.28;1.70;;;;;;;;;;5091787;27;98359;-75
2023/06/28 01:01:51;;;;;;;4.10;1.98;;;;;;;;;;5091602;27;98650;-76
2023/06/28 01:04:17;;;;;;;3.53;1.75;;;;;;;;;;5090590;27;98974;-75
2023/06/28 01:06:48;;;;;;;2.15;1.50;;;;;;;;;;5083838;27;98261;-75
2023/06/28 01:09:15;;;;;;;2.85;1.83;;;;;;;;;;5076602;27;98589;-75
2023/06/28 01:11:42;;;;;;;3.20;1.52;;;;;;;;;;5084213;27;99594;-74
2023/06/28 01:14:10;;;;;;;4.13;1.63;;;;;;;;;;5068789;27;98732;-75
2023/06/28 01:16:37;;;;;;;3.42;1.83;;;;;;;;;;5051546;27;99122;-75
2023/06/28 01:19:04;;;;;;;8.77;2.53;;;;;;;;;;5070013;27;98401;-75
2023/06/28 01:21:33;;;;;;;4.90;2.10;;;;;;;;;;5069465;27;98415;-75
2023/06/28 01:24:02;;;;;;;3.17;1.90;;;;;;;;;;5082315;27;98610;-75
2023/06/28 01:26:30;;;;;;;5.28;1.67;;;;;;;;;;5071010;27;99372;-75
2023/06/28 01:28:56;;;;;;;3.28;1.83;;;;;;;;;;5064008;27;100800;-75
2023/06/28 01:31:25;;;;;;;3.25;1.85;;;;;;;;;;5071677;27;98983;-74
2023/06/28 01:33:51;;;;;;;6.75;2.08;;;;;;;;;;5093689;27;98236;-75
2023/06/28 01:36:17;;;;;;;2.75;1.95;;;;;;;;;;5090594;27;98935;-75
2023/06/28 01:38:44;;;;;;;8.25;2.35;;;;;;;;;;5071606;27;98440;-77
2023/06/28 01:41:11;;;;;;;5.90;2.08;;;;;;;;;;5075954;27;98468;-74
2023/06/28 01:43:37;;;;;;;11.50;2.00;;;;;;;;;;5070466;27;98806;-76
2023/06/28 01:46:04;;;;;;;7.00;4.07;;;;;;;;;;5068722;27;98800;-75
2023/06/28 01:48:31;;;;;;;10.50;2.33;;;;;;;;;;5051996;27;101086;-75
2023/06/28 01:50:57;;;;;;;5.93;2.20;;;;;;;;;;5050772;27;101090;-76
2023/06/28 01:53:24;;;;;;;5.85;2.00;;;;;;;;;;5051367;27;98657;-76
2023/06/28 01:55:51;;;;;;;2.63;1.90;;;;;;;;;;5087110;27;98240;-76
2023/06/28 01:58:18;;;;;;;2.88;2.25;;;;;;;;;;5056557;27;98279;-76
2023/06/28 02:00:44;;;;;;;5.75;1.90;;;;;;;;;;5051095;27;101225;-76
2023/06/28 02:03:11;;;;;;;4.80;1.98;;;;;;;;;;5069962;27;99003;-76
2023/06/28 02:05:39;;;;;;;3.95;2.10;;;;;;;;;;5051000;27;98531;-76
2023/06/28 02:08:06;;;;;;;3.97;2.03;;;;;;;;;;5069101;27;98444;-76
2023/06/28 02:10:33;;;;;;;4.40;2.20;;;;;;;;;;5068690;27;98828;-76
2023/06/28 02:12:59;;;;;;;3.03;2.25;;;;;;;;;;5051216;27;98944;-77
2023/06/28 02:15:28;;;;;;;8.10;2.42;;;;;;;;;;5069562;27;99450;-77
2023/06/28 02:17:56;;;;;;;4.25;1.83;;;;;;;;;;5086340;27;99013;-78
2023/06/28 02:20:22;;;;;;;4.45;2.22;;;;;;;;;;5090111;27;98633;-77
2023/06/28 02:22:49;;;;;;;4.57;2.38;;;;;;;;;;5070944;27;99042;-78
2023/06/28 02:25:15;;;;;;;7.57;2.33;;;;;;;;;;5069685;27;98270;-77
2023/06/28 02:27:42;;;;;;;9.18;3.10;;;;;;;;;;5050701;27;99950;-77
2023/06/28 02:30:08;;;;;;;5.72;2.72;;;;;;;;;;5050893;27;101506;-78
2023/06/28 02:32:35;;;;;;;4.85;2.30;;;;;;;;;;5070301;27;98738;-77
2023/06/28 02:35:01;;;;;;;3.53;2.40;;;;;;;;;;5067495;27;98989;-77
2023/06/28 02:37:28;;;;;;;2.05;1.95;;;;;;;;;;5069429;27;98713;-77
2023/06/28 02:39:54;;;;;;;3.78;2.42;;;;;;;;;;5072897;27;98248;-77
2023/06/28 02:42:21;;;;;;;3.25;1.95;;;;;;;;;;5068657;27;98963;-78
2023/06/28 02:44:48;;;;;;;2.10;2.00;;;;;;;;;;5069165;27;98231;-77
2023/06/28 02:47:15;;;;;;;3.10;2.28;;;;;;;;;;5068647;27;98822;-77
2023/06/28 02:49:41;;;;;;;4.57;2.55;;;;;;;;;;5068087;27;98911;-77
2023/06/28 02:52:08;;;;;;;8.18;2.10;;;;;;;;;;5069340;27;98275;-75
2023/06/28 02:54:34;;;;;;;7.72;2.00;;;;;;;;;;5062851;27;100517;-75
2023/06/28 02:57:01;;;;;;;5.70;1.70;;;;;;;;;;5049574;27;100009;-75
2023/06/28 02:59:43;;;;;;;6.40;2.35;;;;;;;;;;5053290;27;98291;-75
2023/06/28 03:02:10;;;;;;;2.60;2.40;;;;;;;;;;5049745;27;100835;-75
2023/06/28 03:04:39;;;;;;;5.20;2.63;;;;;;;;;;5050495;27;98298;-76
2023/06/28 03:07:17;;;;;;;4.75;2.58;;;;;;;;;;5050390;27;99483;-76
2023/06/28 03:09:44;;;;;;;4.22;2.80;;;;;;;;;;5050170;27;101716;-75
2023/06/28 03:12:11;;;;;;;5.75;2.38;;;;;;;;;;5049628;27;98323;-75
2023/06/28 03:14:37;;;;;;;3.10;2.15;;;;;;;;;;5067469;27;98545;-75
2023/06/28 03:17:05;;;;;;;5.85;2.42;;;;;;;;;;5083355;27;99111;-75
2023/06/28 03:19:33;;;;;;;2.67;2.30;;;;;;;;;;5070406;27;98276;-76
2023/06/28 03:22:00;;;;;;;5.07;2.10;;;;;;;;;;5078002;27;100409;-75
2023/06/28 03:24:26;;;;;;;7.47;2.08;;;;;;;;;;5048880;27;98495;-75
2023/06/28 03:26:53;;;;;;;4.45;2.00;;;;;;;;;;5051957;27;102376;-75
2023/06/28 03:29:20;;;;;;;2.58;2.05;;;;;;;;;;5058201;27;102138;-75
2023/06/28 03:31:47;;;;;;;3.70;2.30;;;;;;;;;;5070101;27;98248;-75
2023/06/28 03:34:14;;;;;;;3.55;2.45;;;;;;;;;;5067297;27;99605;-75
2023/06/28 03:36:43;;;;;;;2.40;2.30;;;;;;;;;;5049753;27;101297;-75
2023/06/28 03:39:28;;;;;;;4.53;2.40;;;;;;;;;;5049930;27;98352;-74
2023/06/28 03:41:55;;;;;;;2.78;2.58;;;;;;;;;;5050260;27;98768;-75
2023/06/28 03:44:21;;;;;;;3.33;2.33;;;;;;;;;;5053226;27;101735;-73
2023/06/28 03:46:48;;;;;;;6.15;2.60;;;;;;;;;;5067562;27;99869;-75
2023/06/28 03:49:19;;;;;;;6.72;2.38;;;;;;;;;;5049004;27;99031;-75
2023/06/28 03:51:45;;;;;;;6.40;2.92;;;;;;;;;;5049214;27;98348;-76
2023/06/28 03:54:13;;;;;;;6.35;2.95;;;;;;;;;;5068124;27;98880;-75
2023/06/28 03:56:41;;;;;;;3.28;2.88;;;;;;;;;;5059769;27;101354;-75
2023/06/28 03:59:07;;;;;;;3.05;2.55;;;;;;;;;;5048943;27;98311;-75
2023/06/28 04:01:34;;;;;;;3.22;2.28;;;;;;;;;;5070611;27;98478;-76
2023/06/28 04:04:02;;;;;;;5.65;2.60;;;;;;;;;;5069727;27;99020;-76
2023/06/28 04:06:28;;;;;;;7.53;3.08;;;;;;;;;;5084734;27;98238;-76
2023/06/28 04:08:55;;;;;;;3.47;2.38;;;;;;;;;;5092055;27;100160;-77
2023/06/28 04:11:21;;;;;;;7.68;3.25;;;;;;;;;;5090866;27;98227;-75
2023/06/28 04:13:48;;;;;;;6.88;2.97;;;;;;;;;;5088991;27;98466;-76
2023/06/28 04:16:14;;;;;;;5.47;3.38;;;;;;;;;;5091697;27;100320;-77
2023/06/28 04:18:41;;;;;;;3.22;2.65;;;;;;;;;;5090698;27;98439;-75
2023/06/28 04:21:07;;;;;;;7.05;3.35;;;;;;;;;;5091563;27;99455;-74
2023/06/28 04:23:34;;;;;;;3.42;2.58;;;;;;;;;;5091699;27;99263;-74
2023/06/28 04:26:00;;;;;;;8.10;3.42;;;;;;;;;;5086008;27;99057;-75
2023/06/28 04:28:26;;;;;;;4.97;3.58;;;;;;;;;;5073870;27;98426;-75
2023/06/28 04:30:53;;;;;;;3.97;3.13;;;;;;;;;;5071303;27;98251;-75
2023/06/28 04:33:22;;;;;;;4.13;3.33;;;;;;;;;;5070489;27;98616;-75
2023/06/28 04:35:49;;;;;;;13.55;3.20;;;;;;;;;;5069734;27;98941;-75
2023/06/28 04:38:20;;;;;;;5.38;3.28;;;;;;;;;;5070596;27;98151;-75
2023/06/28 04:40:47;;;;;;;8.90;3.75;;;;;;;;;;5070215;27;99005;-75
2023/06/28 04:43:14;;;;;;;6.50;3.58;;;;;;;;;;5069153;27;98769;-75
2023/06/28 04:45:40;;;;;;;9.02;3.95;;;;;;;;;;5071459;27;98783;-75
2023/06/28 04:48:07;;;;;;;3.97;3.60;;;;;;;;;;5083499;27;98665;-75
2023/06/28 04:50:34;;;;;;;5.35;3.80;;;;;;;;;;5093974;27;98233;-75
2023/06/28 04:53:03;;;;;;;8.93;3.90;;;;;;;;;;5090414;27;98916;-75
2023/06/28 04:55:32;;;;;;;7.72;3.80;;;;;;;;;;5089964;27;99010;-75
2023/06/28 04:58:02;;;;;;;7.00;3.75;;;;;;;;;;5090520;27;98393;-75
2023/06/28 05:00:29;;;;;;;4.93;3.72;;;;;;;;;;5091824;27;99777;-74
2023/06/28 05:02:56;;;;;;;7.32;3.72;;;;;;;;;;5087640;27;100207;-75
2023/06/28 05:05:23;;;;;;;8.50;3.97;;;;;;;;;;5090086;27;98203;-75
2023/06/28 05:07:51;;;;;;;5.55;4.20;;;;;;;;;;5090927;27;98732;-76
2023/06/28 05:10:17;;;;;;;15.32;4.35;;;;;;;;;;5093262;27;100076;-74
2023/06/28 05:12:44;;;;;;;6.35;4.25;;;;;;;;;;5090187;27;99276;-75
2023/06/28 05:15:12;;;;;;;6.43;4.65;;;;;;;;;;5090654;27;99734;-75
2023/06/28 05:17:38;;;;;;;7.95;4.97;;;;;;;;;;5090375;27;98330;-75
2023/06/28 05:20:05;;;;;;;9.85;4.22;;;;;;;;;;5090552;27;98803;-75
2023/06/28 05:22:31;;;;;;;4.30;3.72;;;;;;;;;;5088110;27;100069;-75
2023/06/28 05:24:58;;;;;;;8.65;4.60;;;;;;;;;;5089949;27;98383;-75
2023/06/28 05:27:24;;;;;;;5.32;4.82;;;;;;;;;;5090311;27;99216;-75
2023/06/28 05:29:51;;;;;;;9.52;4.22;;;;;;;;;;5089991;27;99056;-75
2023/06/28 05:32:18;;;;;;;7.05;4.40;;;;;;;;;;5093075;27;98158;-76
2023/06/28 05:34:44;;;;;;;5.63;5.03;;;;;;;;;;5090908;27;99958;-76
2023/06/28 05:37:11;;;;;;;7.45;4.53;;;;;;;;;;5090413;27;98269;-76
2023/06/28 05:39:37;;;;;;;9.48;4.70;;;;;;;;;;5089626;27;99375;-75
2023/06/28 05:42:03;;;;;;;9.52;5.43;;;;;;;;;;5087465;27;99755;-75
2023/06/28 05:44:30;;;;;;;8.68;5.60;;;;;;;;;;5069939;27;99431;-76
2023/06/28 05:46:56;;;;;;;11.55;5.40;;;;;;;;;;5085719;27;98541;-76
2023/06/28 05:49:23;;;;;;;13.23;5.07;;;;;;;;;;5089701;27;99104;-75
2023/06/28 05:51:50;;;;;;;7.63;4.93;;;;;;;;;;5088821;27;98289;-76
2023/06/28 05:54:16;;;;;;;17.33;5.68;;;;;;;;;;5093365;27;99348;-76
2023/06/28 05:56:43;;;;;;;11.82;5.32;;;;;;;;;;5072112;27;98242;-76
2023/06/28 05:59:10;;;;;;;11.15;5.30;;;;;;;;;;5069173;27;100177;-75
2023/06/28 06:01:36;;;;;;;9.95;5.22;;;;;;;;;;5076558;27;100220;-76
2023/06/28 06:04:03;;;;;;;9.10;5.50;;;;;;;;;;5080739;27;98251;-76
2023/06/28 06:06:29;;;;;;;7.05;5.20;;;;;;;;;;5080664;27;99620;-77
2023/06/28 06:08:56;;;;;;;11.30;5.47;;;;;;;;;;5068884;27;98997;-77
2023/06/28 06:11:26;;;;;;;15.55;6.07;;;;;;;;;;5071601;27;98308;-76
2023/06/28 06:13:52;;;;;;;9.10;5.70;;;;;;;;;;5084842;27;99394;-76
2023/06/28 06:16:19;;;;;;;10.43;5.88;;;;;;;;;;5077810;27;100085;-75
2023/06/28 06:18:45;;;;;;;10.98;5.75;;;;;;;;;;5089644;27;99349;-76
2023/06/28 06:21:12;;;;;;;8.23;5.50;;;;;;;;;;5095188;27;99237;-76
2023/06/28 06:23:39;;;;;;;9.93;5.47;;;;;;;;;;5087920;27;99498;-75
2023/06/28 06:26:05;;;;;;;19.30;6.43;;;;;;;;;;5089566;27;99715;-77
2023/06/28 06:28:32;;;;;;;8.38;5.35;;;;;;;;;;5082381;27;100018;-77
2023/06/28 06:30:58;;;;;;;10.52;5.90;;;;;;;;;;5085668;27;98267;-77
2023/06/28 06:33:25;;;;;;;10.40;6.13;;;;;;;;;;5083489;27;100869;-75
2023/06/28 06:35:51;;;;;;;7.90;5.72;;;;;;;;;;5077408;27;99957;-77
2023/06/28 06:38:21;;;;;;;10.60;5.88;;;;;;;;;;5072632;27;98294;-75
2023/06/28 06:40:48;;;;;;;10.45;5.50;;;;;;;;;;5080043;27;99220;-75
2023/06/28 06:43:15;;;;;;;4.95;4.45;;;;;;;;;;5087195;27;98288;-75
2023/06/28 06:45:42;;;;;;;9.43;6.65;;;;;;;;;;5085367;27;99353;-77
2023/06/28 06:48:09;;;;;;;11.95;6.20;;;;;;;;;;5076278;27;99063;-76
2023/06/28 06:50:35;;;;;;;10.88;6.53;;;;;;;;;;5086513;27;98318;-76
2023/06/28 06:53:02;;;;;;;6.93;5.75;;;;;;;;;;5089088;27;99567;-76
2023/06/28 06:55:28;;;;;;;10.60;6.28;;;;;;;;;;5081196;27;99945;-76
2023/06/28 06:57:54;;;;;;;11.60;6.43;;;;;;;;;;5089841;27;98481;-75
2023/06/28 07:00:21;;;;;;;7.88;5.65;;;;;;;;;;5082893;27;100032;-75
2023/06/28 07:02:47;;;;;;;10.13;6.05;;;;;;;;;;5070628;27;98300;-77
2023/06/28 07:05:15;;;;;;;7.03;5.25;;;;;;;;;;5068927;27;100601;-75
2023/06/28 07:07:42;;;;;;;5.72;5.07;;;;;;;;;;5083068;27;99190;-75
2023/06/28 07:10:08;;;;;;;12.95;6.10;;;;;;;;;;5088125;27;98267;-75
2023/06/28 07:12:38;;;;;;;9.82;5.70;;;;;;;;;;5088456;27;98822;-75
2023/06/28 07:15:05;;;;;;;11.57;6.53;;;;;;;;;;5087678;27;99729;-75
2023/06/28 07:17:31;;;;;;;10.70;6.13;;;;;;;;;;5070380;27;98918;-76
2023/06/28 07:19:58;;;;;;;7.13;5.78;;;;;;;;;;5077392;27;98642;-75
2023/06/28 07:22:24;;;;;;;10.32;6.25;;;;;;;;;;5089382;27;98198;-75
2023/06/28 07:24:51;;;;;;;10.18;6.05;;;;;;;;;;5082938;27;99434;-75
2023/06/28 07:27:17;;;;;;;6.40;5.68;;;;;;;;;;5084661;27;99983;-75
2023/06/28 07:29:44;;;;;;;8.88;5.80;;;;;;;;;;5088146;27;98196;-75
2023/06/28 07:32:10;;;;;;;7.50;5.25;;;;;;;;;;5087821;27;99011;-75
2023/06/28 07:34:37;;;;;;;10.60;5.55;;;;;;;;;;5088155;27;100377;-75
2023/06/28 07:37:06;;;;;;;14.18;5.78;;;;;;;;;;5076543;27;98743;-75
2023/06/28 07:39:32;;;;;;;11.02;5.35;;;;;;;;;;5067287;27;98610;-75
2023/06/28 07:41:59;;;;;;;6.80;5.57;;;;;;;;;;5071571;27;99497;-75
2023/06/28 07:44:25;;;;;;;11.85;5.57;;;;;;;;;;5086752;27;99857;-75
2023/06/28 07:46:52;;;;;;;12.18;5.38;;;;;;;;;;5089200;27;99926;-75
2023/06/28 07:49:18;;;;;;;10.90;5.18;;;;;;;;;;5088497;27;98244;-75
2023/06/28 07:51:45;;;;;;;13.50;5.40;;;;;;;;;;5085125;27;98992;-75
2023/06/28 07:54:11;;;;;;;12.68;4.93;;;;;;;;;;5085690;27;99526;-75
2023/06/28 07:56:53;;;;;;;11.70;5.85;;;;;;;;;;5088656;27;98230;-75
2023/06/28 07:59:20;;;;;;;16.08;5.65;;;;;;;;;;5087392;27;99912;-75
2023/06/28 08:01:47;;;;;;;14.90;5.07;;;;;;;;;;5072361;27;99274;-75
2023/06/28 08:04:15;;;;;;;10.95;5.78;;;;;;;;;;5076126;27;98901;-75
2023/06/28 08:06:43;;;;;;;7.35;4.55;;;;;;;;;;5076571;27;99294;-74
2023/06/28 08:09:09;;;;;;;12.05;5.53;;;;;;;;;;5083278;27;98381;-74
2023/06/28 08:11:36;;;;;;;10.68;5.43;;;;;;;;;;5076374;27;99932;-75
2023/06/28 08:14:02;;;;;;;10.68;5.43;;;;;;;;;;5066333;27;99054;-74
2023/06/28 08:16:28;;;;;;;7.63;6.05;;;;;;;;;;5074933;27;98267;-76
2023/06/28 08:18:55;;;;;;;14.38;5.75;;;;;;;;;;5086931;27;98776;-74
2023/06/28 08:21:21;;;;;;;10.63;5.60;;;;;;;;;;5087101;27;99139;-75
2023/06/28 08:23:48;;;;;;;18.13;5.70;;;;;;;;;;5085414;27;98922;-75
2023/06/28 08:26:15;;;;;;;10.00;6.30;;;;;;;;;;5090358;27;98897;-75
2023/06/28 08:28:41;;;;;;;11.80;5.80;;;;;;;;;;5077754;27;98272;-75
2023/06/28 08:31:25;;;;;;;13.23;6.00;;;;;;;;;;5076528;27;99612;-76
2023/06/28 08:33:51;;;;;;;7.57;5.57;;;;;;;;;;5072704;27;100003;-77
2023/06/28 08:36:18;;;;;;;10.93;6.55;;;;;;;;;;5081821;27;98358;-75
2023/06/28 08:38:44;;;;;;;16.33;6.72;;;;;;;;;;5072162;27;98527;-77
2023/06/28 08:41:10;;;;;;;15.13;7.28;;;;;;;;;;5066501;27;99918;-77
2023/06/28 08:43:37;;;;;;;19.00;7.50;;;;;;;;;;5074224;27;98282;-77
2023/06/28 08:46:04;;;;;;;18.05;6.75;;;;;;;;;;5088900;27;99273;-78
2023/06/28 08:48:31;;;;;;;11.63;7.38;;;;;;;;;;5080533;27;100296;-77
2023/06/28 08:50:58;;;;;;;22.75;8.07;;;;;;;;;;5083570;27;99317;-77
2023/06/28 08:53:28;;;;;;;13.40;6.65;;;;;;;;;;5082463;27;99083;-77
2023/06/28 08:55:56;;;;;;;10.50;6.10;;;;;;;;;;5084181;27;98359;-77
2023/06/28 08:58:23;;;;;;;15.70;6.18;;;;;;;;;;5091006;27;98695;-79
2023/06/28 09:00:49;;;;;;;10.93;6.15;;;;;;;;;;5085259;27;98952;-76
2023/06/28 09:03:16;;;;;;;14.68;7.05;;;;;;;;;;5082679;27;98360;-77
2023/06/28 09:05:44;;;;;;;15.88;6.50;;;;;;;;;;5081347;27;98668;-76
2023/06/28 09:08:11;;;;;;;17.48;6.38;;;;;;;;;;5091545;27;98894;-76
2023/06/28 09:10:38;;;;;;;16.35;7.28;;;;;;;;;;5090346;27;99704;-76
2023/06/28 09:13:05;;;;;;;10.30;6.68;;;;;;;;;;5079590;27;99466;-76
2023/06/28 09:15:33;;;;;;;11.65;6.45;;;;;;;;;;5090418;27;98273;-76
2023/06/28 09:18:00;;;;;;;20.88;6.35;;;;;;;;;;5080050;27;98454;-76
2023/06/28 09:20:26;;;;;;;13.43;6.05;;;;;;;;;;5073002;27;100232;-76
2023/06/28 09:22:54;;;;;;;23.60;6.65;;;;;;;;;;5089038;27;98547;-76
2023/06/28 09:25:21;;;;;;;11.98;7.50;;;;;;;;;;5090575;27;98503;-77
2023/06/28 09:27:47;;;;;;;11.73;6.72;;;;;;;;;;5090392;27;98888;-76
2023/06/28 09:30:33;;;;;;;12.68;6.53;;;;;;;;;;5092732;27;98146;-76
2023/06/28 09:33:03;;;;;;;18.48;6.57;;;;;;;;;;5090181;27;100071;-77
2023/06/28 09:35:29;;;;;;;8.90;6.38;;;;;;;;;;5079044;27;98148;-76
2023/06/28 09:37:58;;;;;;;15.75;7.22;;;;;;;;;;5069137;27;98287;-77
2023/06/28 09:40:26;;;;;;;6.53;5.88;;;;;;;;;;5069322;27;99177;-77
2023/06/28 09:42:52;;;;;;;13.52;6.30;;;;;;;;;;5070761;27;98299;-76
2023/06/28 09:45:26;;;;;;;8.05;6.20;;;;;;;;;;5072310;27;98148;-76
2023/06/28 09:47:55;;;;;;;14.50;6.20;;;;;;;;;;5070326;27;100118;-79
2023/06/28 09:50:21;;;;;;;18.38;6.65;;;;;;;;;;5069767;27;98846;-79
2023/06/28 09:52:48;;;;;;;11.95;6.40;;;;;;;;;;5090253;27;99438;-79
2023/06/28 09:55:15;;;;;;;12.75;6.25;;;;;;;;;;5089073;27;98255;-78
2023/06/28 09:57:42;;;;;;;8.02;5.30;;;;;;;;;;5074727;27;99270;-77
2023/06/28 10:00:09;;;;;;;8.68;6.40;;;;;;;;;;5077663;27;99320;-77
2023/06/28 10:02:38;;;;;;;10.20;5.75;;;;;;;;;;5089366;27;99091;-79
2023/06/28 10:05:06;;;;;;;9.57;6.07;;;;;;;;;;5073439;27;99019;-77
2023/06/28 10:07:32;;;;;;;8.35;5.88;;;;;;;;;;5081757;27;99379;-77
2023/06/28 10:09:59;;;;;;;6.13;4.30;;;;;;;;;;5087907;27;98471;-78
2023/06/28 10:12:27;;;;;;;10.73;6.53;;;;;;;;;;5089728;27;99294;-76
2023/06/28 10:14:58;;;;;;;6.72;5.78;;;;;;;;;;5093143;27;98992;-78
2023/06/28 10:17:28;;;;;;;11.65;6.38;;;;;;;;;;5089965;27;99242;-76
2023/06/28 10:19:55;;;;;;;10.02;6.15;;;;;;;;;;5089806;27;101500;-77
2023/06/28 10:22:22;;;;;;;12.93;6.07;;;;;;;;;;5083012;27;100629;-75
2023/06/28 10:24:49;;;;;;;12.40;6.43;;;;;;;;;;5087740;27;99900;-78
2023/06/28 10:27:16;;;;;;;10.50;6.32;;;;;;;;;;5087610;27;100076;-76
2023/06/28 10:29:46;;;;;;;16.88;7.10;;;;;;;;;;5069753;27;98610;-77
2023/06/28 10:32:12;;;;;;;9.57;6.70;;;;;;;;;;5068362;27;98551;-77
2023/06/28 10:34:40;;;;;;;11.10;6.68;;;;;;;;;;5067968;27;98999;-78
2023/06/28 10:37:07;;;;;;;16.73;7.68;;;;;;;;;;5083897;27;98351;-75
2023/06/28 10:39:35;;;;;;;11.45;7.47;;;;;;;;;;5076861;27;99043;-77
2023/06/28 10:42:01;;;;;;;10.63;7.20;;;;;;;;;;5068061;27;98244;-77
2023/06/28 10:44:28;;;;;;;10.95;6.82;;;;;;;;;;5069080;27;99611;-78
2023/06/28 10:47:11;;;;;;;12.55;7.70;;;;;;;;;;5068025;27;99913;-76
2023/06/28 10:49:41;;;;;;;12.20;7.57;;;;;;;;;;5081478;27;98249;-77
2023/06/28 10:52:14;;;;;;;12.43;7.43;;;;;;;;;;5083412;27;98438;-75
2023/06/28 10:54:40;;;;;;;11.65;6.68;;;;;;;;;;5072339;27;100072;-78
2023/06/28 10:57:08;;;;;;;15.18;7.50;;;;;;;;;;5068093;27;98232;-77
2023/06/28 10:59:35;;;;;;;17.80;8.02;;;;;;;;;;5073838;27;99249;-77
2023/06/28 11:02:02;;;;;;;14.93;7.10;;;;;;;;;;5068164;27;98228;-78
2023/06/28 11:04:28;;;;;;;9.85;7.18;;;;;;;;;;5068000;27;98461;-77
2023/06/28 11:07:09;;;;;;;12.32;7.72;;;;;;;;;;5068566;27;100128;-77
2023/06/28 11:09:35;;;;;;;13.25;7.32;;;;;;;;;;5069165;27;98396;-77
2023/06/28 11:12:07;;;;;;;12.07;7.80;;;;;;;;;;5078381;27;100048;-77
2023/06/28 11:14:34;;;;;;;16.88;8.10;;;;;;;;;;5068738;27;100009;-77
2023/06/28 11:17:01;;;;;;;18.05;8.77;;;;;;;;;;5069160;27;99110;-77
2023/06/28 11:19:28;;;;;;;9.02;7.40;;;;;;;;;;5090958;27;98349;-77
2023/06/28 11:21:58;;;;;;;11.18;8.27;;;;;;;;;;5076906;27;98268;-77
2023/06/28 11:24:34;;;;;;;18.92;8.40;;;;;;;;;;5068289;27;99753;-77
2023/06/28 11:27:08;;;;;;;13.48;8.50;;;;;;;;;;5074094;27;98156;-77
2023/06/28 11:29:50;;;;;;;16.83;8.05;;;;;;;;;;5075137;27;98651;-78
2023/06/28 11:32:21;;;;;;;13.63;8.90;;;;;;;;;;5077064;27;98145;-78
2023/06/28 11:34:48;;;;;;;14.18;8.95;;;;;;;;;;5083843;27;99882;-78
2023/06/28 11:37:16;;;;;;;18.35;9.02;;;;;;;;;;5087019;27;98546;-78
2023/06/28 11:39:44;;;;;;;13.73;9.20;;;;;;;;;;5088167;27;98675;-77
2023/06/28 11:42:13;;;;;;;18.15;10.10;;;;;;;;;;5075877;27;99550;-76
2023/06/28 11:44:47;;;;;;;25.42;10.30;;;;;;;;;;5070725;27;99461;-75
2023/06/28 11:47:15;;;;;;;14.63;9.18;;;;;;;;;;5067263;27;99767;-77
2023/06/28 11:49:45;;;;;;;15.93;9.55;;;;;;;;;;5085680;27;99426;-77
2023/06/28 11:52:12;;;;;;;13.00;9.32;;;;;;;;;;5077083;27;98363;-77
2023/06/28 11:54:39;;;;;;;15.88;10.13;;;;;;;;;;5083275;27;99757;-78
2023/06/28 11:57:05;;;;;;;16.00;9.95;;;;;;;;;;5087598;27;98245;-76
2023/06/28 11:59:32;;;;;;;15.10;9.77;;;;;;;;;;5080340;27;99432;-77
2023/06/28 12:02:05;;;;;;;17.38;9.82;;;;;;;;;;5086383;27;98977;-77
2023/06/28 12:04:33;;;;;;;23.73;10.38;;;;;;;;;;5088502;27;98470;-77
2023/06/28 12:07:01;;;;;;;13.25;9.85;;;;;;;;;;5083974;27;100369;-76
2023/06/28 12:09:29;;;;;;;13.57;10.00;;;;;;;;;;5076332;27;99908;-75
2023/06/28 12:11:59;;;;;;;20.58;10.98;;;;;;;;;;5079450;27;99809;-78
2023/06/28 12:14:27;;;;;;;17.55;11.27;;;;;;;;;;5078233;27;100266;-76
2023/06/28 12:16:54;;;;;;;20.15;11.15;;;;;;;;;;5084819;27;98290;-78
2023/06/28 12:19:35;;;;;;;14.93;10.40;;;;;;;;;;5087977;27;98504;-77
2023/06/28 12:22:03;;;;;;;17.67;9.85;;;;;;;;;;5072644;27;99060;-77
2023/06/28 12:24:30;;;;;;;18.35;9.73;;;;;;;;;;5076597;27;98688;-78
2023/06/28 12:26:57;;;;;;;15.30;10.55;;;;;;;;;;5081965;27;99312;-79
2023/06/28 12:29:29;;;;;;;18.52;10.70;;;;;;;;;;5071475;27;98325;-76
2023/06/28 12:31:56;;;;;;;16.38;10.80;;;;;;;;;;5079415;27;99900;-77
2023/06/28 12:34:24;;;;;;;20.42;11.23;;;;;;;;;;5086515;27;99840;-77
2023/06/28 12:36:51;;;;;;;21.05;11.30;;;;;;;;;;5055082;27;98661;-79
2023/06/28 12:39:25;;;;;;;16.55;11.02;;;;;;;;;;5071297;27;99240;-79
2023/06/28 12:42:05;;;;;;;17.70;11.43;;;;;;;;;;5084102;27;100360;-78
2023/06/28 12:44:46;;;;;;;17.50;11.50;;;;;;;;;;5091673;27;98518;-78
2023/06/28 12:47:12;;;;;;;21.90;12.20;;;;;;;;;;5087288;27;98982;-77
2023/06/28 12:49:39;;;;;;;19.55;12.10;;;;;;;;;;5091715;27;99271;-78
2023/06/28 12:52:05;;;;;;;15.20;10.77;;;;;;;;;;5089111;27;98921;-75
2023/06/28 12:54:32;;;;;;;18.40;11.15;;;;;;;;;;5078255;27;99907;-76
2023/06/28 12:57:00;;;;;;;22.85;9.27;;;;;;;;;;5070643;27;98219;-78
2023/06/28 12:59:27;;;;;;;17.13;10.98;;;;;;;;;;5082672;27;98599;-76
2023/06/28 13:01:54;;;;;;;14.75;11.65;;;;;;;;;;5080355;27;100094;-77
2023/06/28 13:04:20;;;;;;;15.13;11.85;;;;;;;;;;5081423;27;98259;-78
2023/06/28 13:06:47;;;;;;;22.25;13.15;;;;;;;;;;5075644;27;99427;-76
2023/06/28 13:09:13;;;;;;;19.20;11.80;;;;;;;;;;5089983;27;99933;-76
2023/06/28 13:11:40;;;;;;;19.17;11.75;;;;;;;;;;5094401;27;98761;-77
2023/06/28 13:14:06;;;;;;;18.00;11.52;;;;;;;;;;5090420;27;100399;-76
2023/06/28 13:16:33;;;;;;;16.95;12.45;;;;;;;;;;5088329;27;98358;-77
2023/06/28 13:19:00;;;;;;;23.90;12.52;;;;;;;;;;5085602;27;99499;-76
2023/06/28 13:21:26;;;;;;;22.30;12.90;;;;;;;;;;5084467;27;99905;-76
2023/06/28 13:23:53;;;;;;;18.33;13.20;;;;;;;;;;5077845;27;98261;-76
2023/06/28 13:26:19;;;;;;;27.05;13.35;;;;;;;;;;5090084;27;98746;-77
2023/06/28 13:28:46;;;;;;;20.27;12.90;;;;;;;;;;5077904;27;100126;-76
2023/06/28 13:31:12;;;;;;;21.33;12.75;;;;;;;;;;5073612;27;98257;-77
2023/06/28 13:33:39;;;;;;;17.40;11.80;;;;;;;;;;5088442;27;99996;-76
2023/06/28 13:36:05;;;;;;;19.90;12.35;;;;;;;;;;5085703;27;98301;-76
2023/06/28 13:38:35;;;;;;;19.95;11.32;;;;;;;;;;5089934;27;99880;-76
2023/06/28 13:41:01;;;;;;;19.17;11.80;;;;;;;;;;5087228;27;100139;-76
2023/06/28 13:43:28;;;;;;;18.70;11.25;;;;;;;;;;5090404;27;98185;-76
2023/06/28 13:45:54;;;;;;;15.07;11.48;;;;;;;;;;5077731;27;99579;-77
2023/06/28 13:48:22;;;;;;;19.38;11.77;;;;;;;;;;5069765;27;100749;-77
2023/06/28 13:50:49;;;;;;;25.48;11.48;;;;;;;;;;5079401;27;100057;-78
2023/06/28 13:53:15;;;;;;;19.02;11.52;;;;;;;;;;5091488;27;99457;-77
2023/06/28 13:55:42;;;;;;;14.68;11.75;;;;;;;;;;5087997;27;98276;-78
2023/06/28 13:58:09;;;;;;;18.67;11.48;;;;;;;;;;5088635;27;99274;-77
2023/06/28 14:00:35;;;;;;;29.08;12.10;;;;;;;;;;5076972;27;99091;-76
2023/06/28 14:03:02;;;;;;;21.85;12.55;;;;;;;;;;5074930;27;98427;-77
2023/06/28 14:05:29;;;;;;;18.40;12.27;;;;;;;;;;5073279;27;99475;-77
2023/06/28 14:07:56;;;;;;;20.80;12.90;;;;;;;;;;5072394;27;98975;-79
2023/06/28 14:10:22;;;;;;;16.83;11.88;;;;;;;;;;5089143;27;98510;-76
2023/06/28 14:12:49;;;;;;;15.43;10.65;;;;;;;;;;5075562;27;99620;-81
2023/06/28 14:15:15;;;;;;;31.33;12.82;;;;;;;;;;5092127;27;99217;-78
2023/06/28 14:17:42;;;;;;;21.60;10.93;;;;;;;;;;5090412;27;99441;-78
2023/06/28 14:20:09;;;;;;;18.00;10.48;;;;;;;;;;5082008;27;100080;-79
2023/06/28 14:22:37;;;;;;;16.70;9.43;;;;;;;;;;5089841;27;98736;-80
2023/06/28 14:25:04;;;;;;;20.70;10.75;;;;;;;;;;5085585;27;99384;-79
2023/06/28 14:27:31;;;;;;;17.90;10.07;;;;;;;;;;5079176;27;100357;-79
2023/06/28 14:29:57;;;;;;;19.40;10.85;;;;;;;;;;5084191;27;98252;-78
2023/06/28 14:32:23;;;;;;;12.07;10.32;;;;;;;;;;5075578;27;99738;-77